sensor_id;sensor_type;location;lat;lon;timestamp;P1;durP1;ratioP1;P2;durP2;ratioP2
26211;SDS011;13951;49.516;6.094;2023-09-30T00:00:40;3.20;;;2.80;;
26211;SDS011;13951;49.516;6.094;2023-09-30T00:03:14;5.23;;;2.53;;
26211;SDS011;13951;49.516;6.094;2023-09-30T00:05:47;4.03;;;2.77;;
26211;SDS011;13951;49.516;6.094;2023-09-30T00:08:21;5.30;;;2.80;;
26211;SDS011;13951;49.516;6.094;2023-09-30T00:10:55;2.00;;;1.80;;
26211;SDS011;13951;49.516;6.094;2023-09-30T00:13:28;2.20;;;2.00;;
26211;SDS011;13951;49.516;6.094;2023-09-30T00:16:02;3.03;;;2.30;;
26211;SDS011;13951;49.516;6.094;2023-09-30T00:18:38;4.37;;;2.80;;
26211;SDS011;13951;49.516;6.094;2023-09-30T00:21:11;3.43;;;2.80;;
26211;SDS011;13951;49.516;6.094;2023-09-30T00:23:44;3.00;;;2.33;;
26211;SDS011;13951;49.516;6.094;2023-09-30T00:26:18;3.20;;;2.30;;
26211;SDS011;13951;49.516;6.094;2023-09-30T00:28:52;2.67;;;2.43;;
26211;SDS011;13951;49.516;6.094;2023-09-30T00:31:26;3.47;;;2.57;;
26211;SDS011;13951;49.516;6.094;2023-09-30T00:34:00;3.37;;;2.63;;
26211;SDS011;13951;49.516;6.094;2023-09-30T00:36:33;2.60;;;2.37;;
26211;SDS011;13951;49.516;6.094;2023-09-30T00:39:07;2.23;;;2.00;;
26211;SDS011;13951;49.516;6.094;2023-09-30T00:41:41;4.47;;;2.50;;
26211;SDS011;13951;49.516;6.094;2023-09-30T00:44:14;2.93;;;2.60;;
26211;SDS011;13951;49.516;6.094;2023-09-30T00:46:48;2.83;;;2.30;;
26211;SDS011;13951;49.516;6.094;2023-09-30T00:49:22;1.97;;;1.87;;
26211;SDS011;13951;49.516;6.094;2023-09-30T00:51:58;1.80;;;1.60;;
26211;SDS011;13951;49.516;6.094;2023-09-30T00:54:32;1.50;;;1.40;;
26211;SDS011;13951;49.516;6.094;2023-09-30T00:57:05;1.50;;;1.40;;
26211;SDS011;13951;49.516;6.094;2023-09-30T00:59:39;1.97;;;1.60;;
26211;SDS011;13951;49.516;6.094;2023-09-30T01:02:14;2.27;;;1.63;;
26211;SDS011;13951;49.516;6.094;2023-09-30T01:04:48;2.23;;;1.73;;
26211;SDS011;13951;49.516;6.094;2023-09-30T01:07:22;1.50;;;1.40;;
26211;SDS011;13951;49.516;6.094;2023-09-30T01:09:58;1.73;;;1.60;;
26211;SDS011;13951;49.516;6.094;2023-09-30T01:12:31;2.30;;;1.80;;
26211;SDS011;13951;49.516;6.094;2023-09-30T01:15:04;2.87;;;1.90;;
26211;SDS011;13951;49.516;6.094;2023-09-30T01:17:40;3.07;;;2.30;;
26211;SDS011;13951;49.516;6.094;2023-09-30T01:20:13;3.70;;;2.10;;
26211;SDS011;13951;49.516;6.094;2023-09-30T01:22:49;2.50;;;2.03;;
26211;SDS011;13951;49.516;6.094;2023-09-30T01:25:22;1.87;;;1.70;;
26211;SDS011;13951;49.516;6.094;2023-09-30T01:27:57;3.17;;;2.37;;
26211;SDS011;13951;49.516;6.094;2023-09-30T01:30:33;2.27;;;2.07;;
26211;SDS011;13951;49.516;6.094;2023-09-30T01:33:06;3.37;;;2.30;;
26211;SDS011;13951;49.516;6.094;2023-09-30T01:35:40;2.60;;;2.20;;
26211;SDS011;13951;49.516;6.094;2023-09-30T01:38:13;3.43;;;2.40;;
26211;SDS011;13951;49.516;6.094;2023-09-30T01:40:47;3.63;;;2.33;;
26211;SDS011;13951;49.516;6.094;2023-09-30T01:43:20;2.17;;;1.97;;
26211;SDS011;13951;49.516;6.094;2023-09-30T01:45:54;2.13;;;1.90;;
26211;SDS011;13951;49.516;6.094;2023-09-30T01:48:27;4.37;;;2.63;;
26211;SDS011;13951;49.516;6.094;2023-09-30T01:51:00;4.87;;;2.90;;
26211;SDS011;13951;49.516;6.094;2023-09-30T01:53:34;3.60;;;2.83;;
26211;SDS011;13951;49.516;6.094;2023-09-30T01:56:07;2.97;;;2.57;;
26211;SDS011;13951;49.516;6.094;2023-09-30T01:58:41;4.70;;;1.60;;
26211;SDS011;13951;49.516;6.094;2023-09-30T02:01:14;2.17;;;1.63;;
26211;SDS011;13951;49.516;6.094;2023-09-30T02:03:48;1.70;;;1.40;;
26211;SDS011;13951;49.516;6.094;2023-09-30T02:06:22;2.80;;;1.83;;
26211;SDS011;13951;49.516;6.094;2023-09-30T02:08:55;2.67;;;2.27;;
26211;SDS011;13951;49.516;6.094;2023-09-30T02:11:28;3.63;;;2.63;;
26211;SDS011;13951;49.516;6.094;2023-09-30T02:14:02;3.63;;;2.40;;
26211;SDS011;13951;49.516;6.094;2023-09-30T02:16:35;4.13;;;2.70;;
26211;SDS011;13951;49.516;6.094;2023-09-30T02:19:10;4.37;;;2.40;;
26211;SDS011;13951;49.516;6.094;2023-09-30T02:21:43;3.07;;;2.43;;
26211;SDS011;13951;49.516;6.094;2023-09-30T02:24:18;2.57;;;2.03;;
26211;SDS011;13951;49.516;6.094;2023-09-30T02:26:51;2.47;;;2.10;;
26211;SDS011;13951;49.516;6.094;2023-09-30T02:29:24;3.40;;;2.10;;
26211;SDS011;13951;49.516;6.094;2023-09-30T02:31:58;3.63;;;2.13;;
26211;SDS011;13951;49.516;6.094;2023-09-30T02:34:32;4.30;;;2.40;;
26211;SDS011;13951;49.516;6.094;2023-09-30T02:37:06;2.03;;;1.70;;
26211;SDS011;13951;49.516;6.094;2023-09-30T02:39:39;5.80;;;2.10;;
26211;SDS011;13951;49.516;6.094;2023-09-30T02:42:13;3.80;;;2.30;;
26211;SDS011;13951;49.516;6.094;2023-09-30T02:44:46;12.50;;;2.70;;
26211;SDS011;13951;49.516;6.094;2023-09-30T02:47:19;6.83;;;2.40;;
26211;SDS011;13951;49.516;6.094;2023-09-30T02:49:52;5.60;;;2.00;;
26211;SDS011;13951;49.516;6.094;2023-09-30T02:52:27;6.00;;;2.30;;
26211;SDS011;13951;49.516;6.094;2023-09-30T02:55:01;2.83;;;2.33;;
26211;SDS011;13951;49.516;6.094;2023-09-30T02:57:35;1.93;;;1.63;;
26211;SDS011;13951;49.516;6.094;2023-09-30T03:00:09;2.03;;;1.60;;
26211;SDS011;13951;49.516;6.094;2023-09-30T03:03:01;1.50;;;1.40;;
26211;SDS011;13951;49.516;6.094;2023-09-30T03:05:36;1.70;;;1.60;;
26211;SDS011;13951;49.516;6.094;2023-09-30T03:08:09;2.00;;;1.43;;
26211;SDS011;13951;49.516;6.094;2023-09-30T03:10:42;1.67;;;1.57;;
26211;SDS011;13951;49.516;6.094;2023-09-30T03:13:16;2.13;;;1.60;;
26211;SDS011;13951;49.516;6.094;2023-09-30T03:15:51;2.33;;;1.80;;
26211;SDS011;13951;49.516;6.094;2023-09-30T03:18:24;3.27;;;2.63;;
26211;SDS011;13951;49.516;6.094;2023-09-30T03:21:01;3.53;;;2.50;;
26211;SDS011;13951;49.516;6.094;2023-09-30T03:23:41;3.00;;;2.20;;
26211;SDS011;13951;49.516;6.094;2023-09-30T03:26:14;2.47;;;2.20;;
26211;SDS011;13951;49.516;6.094;2023-09-30T03:28:48;5.20;;;2.13;;
26211;SDS011;13951;49.516;6.094;2023-09-30T03:31:22;4.33;;;2.30;;
26211;SDS011;13951;49.516;6.094;2023-09-30T03:33:56;5.17;;;2.70;;
26211;SDS011;13951;49.516;6.094;2023-09-30T03:36:29;4.97;;;2.50;;
26211;SDS011;13951;49.516;6.094;2023-09-30T03:39:03;5.00;;;2.23;;
26211;SDS011;13951;49.516;6.094;2023-09-30T03:41:38;7.40;;;3.00;;
26211;SDS011;13951;49.516;6.094;2023-09-30T03:44:12;5.90;;;2.70;;
26211;SDS011;13951;49.516;6.094;2023-09-30T03:46:51;6.10;;;2.43;;
26211;SDS011;13951;49.516;6.094;2023-09-30T03:49:25;3.60;;;2.60;;
26211;SDS011;13951;49.516;6.094;2023-09-30T03:51:58;4.93;;;2.47;;
26211;SDS011;13951;49.516;6.094;2023-09-30T03:54:34;4.80;;;2.73;;
26211;SDS011;13951;49.516;6.094;2023-09-30T03:57:07;3.43;;;2.70;;
26211;SDS011;13951;49.516;6.094;2023-09-30T03:59:41;6.07;;;2.90;;
26211;SDS011;13951;49.516;6.094;2023-09-30T04:02:14;6.93;;;2.63;;
26211;SDS011;13951;49.516;6.094;2023-09-30T04:04:47;3.53;;;2.57;;
26211;SDS011;13951;49.516;6.094;2023-09-30T04:07:23;2.63;;;2.37;;
26211;SDS011;13951;49.516;6.094;2023-09-30T04:09:59;3.13;;;2.50;;
26211;SDS011;13951;49.516;6.094;2023-09-30T04:12:33;3.83;;;2.90;;
26211;SDS011;13951;49.516;6.094;2023-09-30T04:15:07;3.80;;;2.57;;
26211;SDS011;13951;49.516;6.094;2023-09-30T04:17:44;3.60;;;2.57;;
26211;SDS011;13951;49.516;6.094;2023-09-30T04:20:17;3.10;;;2.73;;
26211;SDS011;13951;49.516;6.094;2023-09-30T04:22:56;3.23;;;2.63;;
26211;SDS011;13951;49.516;6.094;2023-09-30T04:25:30;6.37;;;3.43;;
26211;SDS011;13951;49.516;6.094;2023-09-30T04:28:04;3.07;;;2.60;;
26211;SDS011;13951;49.516;6.094;2023-09-30T04:30:38;4.07;;;3.10;;
26211;SDS011;13951;49.516;6.094;2023-09-30T04:33:11;4.20;;;2.90;;
26211;SDS011;13951;49.516;6.094;2023-09-30T04:35:46;3.13;;;2.57;;
26211;SDS011;13951;49.516;6.094;2023-09-30T04:38:20;3.07;;;2.50;;
26211;SDS011;13951;49.516;6.094;2023-09-30T04:40:53;4.40;;;2.67;;
26211;SDS011;13951;49.516;6.094;2023-09-30T04:43:26;4.50;;;3.10;;
26211;SDS011;13951;49.516;6.094;2023-09-30T04:46:01;3.77;;;2.90;;
26211;SDS011;13951;49.516;6.094;2023-09-30T04:48:34;4.50;;;3.30;;
26211;SDS011;13951;49.516;6.094;2023-09-30T04:51:09;8.90;;;3.40;;
26211;SDS011;13951;49.516;6.094;2023-09-30T04:53:46;7.10;;;3.20;;
26211;SDS011;13951;49.516;6.094;2023-09-30T04:56:20;5.23;;;3.07;;
26211;SDS011;13951;49.516;6.094;2023-09-30T04:58:53;7.47;;;2.97;;
26211;SDS011;13951;49.516;6.094;2023-09-30T05:01:27;4.53;;;2.43;;
26211;SDS011;13951;49.516;6.094;2023-09-30T05:04:00;5.50;;;2.50;;
26211;SDS011;13951;49.516;6.094;2023-09-30T05:06:35;6.27;;;2.70;;
26211;SDS011;13951;49.516;6.094;2023-09-30T05:09:08;3.33;;;2.37;;
26211;SDS011;13951;49.516;6.094;2023-09-30T05:11:42;13.43;;;2.40;;
26211;SDS011;13951;49.516;6.094;2023-09-30T05:14:16;8.53;;;2.40;;
26211;SDS011;13951;49.516;6.094;2023-09-30T05:16:49;2.63;;;2.33;;
26211;SDS011;13951;49.516;6.094;2023-09-30T05:19:23;2.57;;;1.80;;
26211;SDS011;13951;49.516;6.094;2023-09-30T05:21:56;3.77;;;2.30;;
26211;SDS011;13951;49.516;6.094;2023-09-30T05:24:33;4.73;;;2.37;;
26211;SDS011;13951;49.516;6.094;2023-09-30T05:27:12;3.17;;;2.20;;
26211;SDS011;13951;49.516;6.094;2023-09-30T05:29:45;8.87;;;2.17;;
26211;SDS011;13951;49.516;6.094;2023-09-30T05:32:21;6.13;;;2.07;;
26211;SDS011;13951;49.516;6.094;2023-09-30T05:34:59;7.63;;;2.57;;
26211;SDS011;13951;49.516;6.094;2023-09-30T05:37:35;4.80;;;2.80;;
26211;SDS011;13951;49.516;6.094;2023-09-30T05:40:10;2.50;;;1.97;;
26211;SDS011;13951;49.516;6.094;2023-09-30T05:42:59;11.57;;;2.73;;
26211;SDS011;13951;49.516;6.094;2023-09-30T05:45:33;5.23;;;2.33;;
26211;SDS011;13951;49.516;6.094;2023-09-30T05:48:07;3.83;;;2.90;;
26211;SDS011;13951;49.516;6.094;2023-09-30T05:50:40;5.73;;;2.40;;
26211;SDS011;13951;49.516;6.094;2023-09-30T05:53:16;7.03;;;2.70;;
26211;SDS011;13951;49.516;6.094;2023-09-30T05:55:50;2.67;;;2.30;;
26211;SDS011;13951;49.516;6.094;2023-09-30T05:58:23;4.17;;;2.43;;
26211;SDS011;13951;49.516;6.094;2023-09-30T06:00:58;4.27;;;2.40;;
26211;SDS011;13951;49.516;6.094;2023-09-30T06:03:39;2.60;;;2.40;;
26211;SDS011;13951;49.516;6.094;2023-09-30T06:06:14;2.97;;;2.63;;
26211;SDS011;13951;49.516;6.094;2023-09-30T06:08:48;5.00;;;2.07;;
26211;SDS011;13951;49.516;6.094;2023-09-30T06:11:22;2.70;;;2.33;;
26211;SDS011;13951;49.516;6.094;2023-09-30T06:14:00;2.67;;;2.37;;
26211;SDS011;13951;49.516;6.094;2023-09-30T06:16:34;3.33;;;2.60;;
26211;SDS011;13951;49.516;6.094;2023-09-30T06:19:07;5.40;;;2.40;;
26211;SDS011;13951;49.516;6.094;2023-09-30T06:21:41;6.60;;;2.67;;
26211;SDS011;13951;49.516;6.094;2023-09-30T06:24:15;15.90;;;3.03;;
26211;SDS011;13951;49.516;6.094;2023-09-30T06:26:49;7.80;;;2.60;;
26211;SDS011;13951;49.516;6.094;2023-09-30T06:29:22;22.53;;;3.40;;
26211;SDS011;13951;49.516;6.094;2023-09-30T06:31:55;25.13;;;3.60;;
26211;SDS011;13951;49.516;6.094;2023-09-30T06:34:29;15.27;;;3.20;;
26211;SDS011;13951;49.516;6.094;2023-09-30T06:37:02;10.87;;;3.10;;
26211;SDS011;13951;49.516;6.094;2023-09-30T06:39:36;7.40;;;3.13;;
26211;SDS011;13951;49.516;6.094;2023-09-30T06:42:10;8.60;;;2.77;;
26211;SDS011;13951;49.516;6.094;2023-09-30T06:44:45;5.47;;;2.90;;
26211;SDS011;13951;49.516;6.094;2023-09-30T06:47:19;3.87;;;2.77;;
26211;SDS011;13951;49.516;6.094;2023-09-30T06:49:53;10.07;;;2.90;;
26211;SDS011;13951;49.516;6.094;2023-09-30T06:52:26;9.70;;;2.53;;
26211;SDS011;13951;49.516;6.094;2023-09-30T06:55:00;6.03;;;2.53;;
26211;SDS011;13951;49.516;6.094;2023-09-30T06:57:35;11.50;;;2.53;;
26211;SDS011;13951;49.516;6.094;2023-09-30T07:00:11;9.02;;;2.78;;
26211;SDS011;13951;49.516;6.094;2023-09-30T07:02:47;10.00;;;2.20;;
26211;SDS011;13951;49.516;6.094;2023-09-30T07:05:21;6.10;;;2.00;;
26211;SDS011;13951;49.516;6.094;2023-09-30T07:07:55;4.07;;;1.87;;
26211;SDS011;13951;49.516;6.094;2023-09-30T07:10:29;1.70;;;1.60;;
26211;SDS011;13951;49.516;6.094;2023-09-30T07:13:03;2.17;;;1.87;;
26211;SDS011;13951;49.516;6.094;2023-09-30T07:15:37;2.63;;;2.37;;
26211;SDS011;13951;49.516;6.094;2023-09-30T07:18:11;2.67;;;1.97;;
26211;SDS011;13951;49.516;6.094;2023-09-30T07:20:45;2.33;;;1.80;;
26211;SDS011;13951;49.516;6.094;2023-09-30T07:23:19;5.07;;;2.03;;
26211;SDS011;13951;49.516;6.094;2023-09-30T07:25:53;2.53;;;1.70;;
26211;SDS011;13951;49.516;6.094;2023-09-30T07:28:26;2.77;;;2.20;;
26211;SDS011;13951;49.516;6.094;2023-09-30T07:31:02;2.50;;;1.90;;
26211;SDS011;13951;49.516;6.094;2023-09-30T07:33:35;1.90;;;1.63;;
26211;SDS011;13951;49.516;6.094;2023-09-30T07:36:09;2.77;;;1.97;;
26211;SDS011;13951;49.516;6.094;2023-09-30T07:38:43;2.37;;;1.97;;
26211;SDS011;13951;49.516;6.094;2023-09-30T07:41:16;2.50;;;2.23;;
26211;SDS011;13951;49.516;6.094;2023-09-30T07:43:50;2.50;;;2.30;;
26211;SDS011;13951;49.516;6.094;2023-09-30T07:46:23;2.53;;;2.33;;
26211;SDS011;13951;49.516;6.094;2023-09-30T07:48:56;3.77;;;2.47;;
26211;SDS011;13951;49.516;6.094;2023-09-30T07:51:32;2.87;;;2.57;;
26211;SDS011;13951;49.516;6.094;2023-09-30T07:54:05;3.00;;;2.60;;
26211;SDS011;13951;49.516;6.094;2023-09-30T07:56:59;3.33;;;2.70;;
26211;SDS011;13951;49.516;6.094;2023-09-30T07:59:33;3.47;;;2.70;;
26211;SDS011;13951;49.516;6.094;2023-09-30T08:02:07;3.30;;;2.90;;
26211;SDS011;13951;49.516;6.094;2023-09-30T08:04:41;4.50;;;3.10;;
26211;SDS011;13951;49.516;6.094;2023-09-30T08:07:14;6.13;;;3.63;;
26211;SDS011;13951;49.516;6.094;2023-09-30T08:09:47;4.10;;;3.10;;
26211;SDS011;13951;49.516;6.094;2023-09-30T08:12:21;6.00;;;3.50;;
26211;SDS011;13951;49.516;6.094;2023-09-30T08:14:54;5.13;;;3.57;;
26211;SDS011;13951;49.516;6.094;2023-09-30T08:17:27;3.80;;;3.20;;
26211;SDS011;13951;49.516;6.094;2023-09-30T08:20:00;5.67;;;3.47;;
26211;SDS011;13951;49.516;6.094;2023-09-30T08:22:34;5.33;;;3.80;;
26211;SDS011;13951;49.516;6.094;2023-09-30T08:25:07;6.03;;;4.05;;
26211;SDS011;13951;49.516;6.094;2023-09-30T08:27:41;4.72;;;3.55;;
26211;SDS011;13951;49.516;6.094;2023-09-30T08:30:15;4.07;;;3.25;;
26211;SDS011;13951;49.516;6.094;2023-09-30T08:32:48;4.68;;;3.72;;
26211;SDS011;13951;49.516;6.094;2023-09-30T08:35:22;6.32;;;3.50;;
26211;SDS011;13951;49.516;6.094;2023-09-30T08:37:55;6.05;;;3.63;;
26211;SDS011;13951;49.516;6.094;2023-09-30T08:40:28;5.90;;;3.50;;
26211;SDS011;13951;49.516;6.094;2023-09-30T08:43:02;5.60;;;4.03;;
26211;SDS011;13951;49.516;6.094;2023-09-30T08:45:39;6.90;;;3.80;;
26211;SDS011;13951;49.516;6.094;2023-09-30T08:48:17;4.80;;;3.45;;
26211;SDS011;13951;49.516;6.094;2023-09-30T08:50:52;4.28;;;3.63;;
26211;SDS011;13951;49.516;6.094;2023-09-30T08:53:28;6.53;;;2.90;;
26211;SDS011;13951;49.516;6.094;2023-09-30T08:56:02;7.22;;;3.85;;
26211;SDS011;13951;49.516;6.094;2023-09-30T08:58:41;4.40;;;3.30;;
26211;SDS011;13951;49.516;6.094;2023-09-30T09:01:14;5.88;;;3.70;;
26211;SDS011;13951;49.516;6.094;2023-09-30T09:03:56;4.28;;;2.90;;
26211;SDS011;13951;49.516;6.094;2023-09-30T09:06:30;5.15;;;3.05;;
26211;SDS011;13951;49.516;6.094;2023-09-30T09:09:16;5.22;;;3.17;;
26211;SDS011;13951;49.516;6.094;2023-09-30T09:11:51;9.00;;;3.28;;
26211;SDS011;13951;49.516;6.094;2023-09-30T09:14:40;5.18;;;2.78;;
26211;SDS011;13951;49.516;6.094;2023-09-30T09:19:59;4.53;;;2.72;;
26211;SDS011;13951;49.516;6.094;2023-09-30T09:22:43;5.35;;;2.75;;
26211;SDS011;13951;49.516;6.094;2023-09-30T09:25:16;5.68;;;3.10;;
26211;SDS011;13951;49.516;6.094;2023-09-30T09:27:51;6.65;;;3.22;;
26211;SDS011;13951;49.516;6.094;2023-09-30T09:30:27;4.15;;;2.25;;
26211;SDS011;13951;49.516;6.094;2023-09-30T09:33:01;7.05;;;2.45;;
26211;SDS011;13951;49.516;6.094;2023-09-30T09:35:39;5.13;;;2.50;;
26211;SDS011;13951;49.516;6.094;2023-09-30T09:38:12;4.55;;;3.03;;
26211;SDS011;13951;49.516;6.094;2023-09-30T09:40:45;4.63;;;2.15;;
26211;SDS011;13951;49.516;6.094;2023-09-30T09:43:18;4.50;;;2.45;;
26211;SDS011;13951;49.516;6.094;2023-09-30T09:45:57;6.88;;;4.53;;
26211;SDS011;13951;49.516;6.094;2023-09-30T09:48:37;7.28;;;3.65;;
26211;SDS011;13951;49.516;6.094;2023-09-30T09:51:10;8.63;;;5.00;;
26211;SDS011;13951;49.516;6.094;2023-09-30T09:53:48;6.88;;;3.10;;
26211;SDS011;13951;49.516;6.094;2023-09-30T09:56:22;4.78;;;2.30;;
26211;SDS011;13951;49.516;6.094;2023-09-30T09:58:56;5.25;;;2.22;;
26211;SDS011;13951;49.516;6.094;2023-09-30T10:01:30;4.35;;;2.53;;
26211;SDS011;13951;49.516;6.094;2023-09-30T10:04:23;4.95;;;2.30;;
26211;SDS011;13951;49.516;6.094;2023-09-30T10:06:57;5.43;;;2.88;;
26211;SDS011;13951;49.516;6.094;2023-09-30T10:09:31;5.85;;;2.60;;
26211;SDS011;13951;49.516;6.094;2023-09-30T10:12:07;5.32;;;2.55;;
26211;SDS011;13951;49.516;6.094;2023-09-30T10:14:41;4.35;;;2.25;;
26211;SDS011;13951;49.516;6.094;2023-09-30T10:17:15;5.15;;;2.60;;
26211;SDS011;13951;49.516;6.094;2023-09-30T10:20:04;4.70;;;2.30;;
26211;SDS011;13951;49.516;6.094;2023-09-30T10:22:39;7.30;;;2.40;;
26211;SDS011;13951;49.516;6.094;2023-09-30T10:25:32;4.60;;;2.80;;
26211;SDS011;13951;49.516;6.094;2023-09-30T10:36:34;5.10;;;2.38;;
26211;SDS011;13951;49.516;6.094;2023-09-30T10:39:13;4.55;;;2.88;;
26211;SDS011;13951;49.516;6.094;2023-09-30T10:49:59;5.80;;;2.83;;
26211;SDS011;13951;49.516;6.094;2023-09-30T10:52:34;6.40;;;2.85;;
26211;SDS011;13951;49.516;6.094;2023-09-30T10:55:08;7.30;;;3.30;;
26211;SDS011;13951;49.516;6.094;2023-09-30T10:57:42;8.25;;;3.08;;
26211;SDS011;13951;49.516;6.094;2023-09-30T11:00:16;6.57;;;3.05;;
26211;SDS011;13951;49.516;6.094;2023-09-30T11:02:51;5.40;;;3.17;;
26211;SDS011;13951;49.516;6.094;2023-09-30T11:05:26;5.20;;;3.08;;
26211;SDS011;13951;49.516;6.094;2023-09-30T11:08:19;6.05;;;3.00;;
26211;SDS011;13951;49.516;6.094;2023-09-30T11:10:56;4.05;;;2.53;;
26211;SDS011;13951;49.516;6.094;2023-09-30T11:13:33;4.88;;;2.65;;
26211;SDS011;13951;49.516;6.094;2023-09-30T11:16:09;5.55;;;2.95;;
26211;SDS011;13951;49.516;6.094;2023-09-30T11:18:44;5.57;;;3.05;;
26211;SDS011;13951;49.516;6.094;2023-09-30T11:21:17;5.57;;;3.15;;
26211;SDS011;13951;49.516;6.094;2023-09-30T11:23:51;5.65;;;2.92;;
26211;SDS011;13951;49.516;6.094;2023-09-30T11:26:29;5.65;;;2.95;;
26211;SDS011;13951;49.516;6.094;2023-09-30T11:29:12;4.15;;;2.45;;
26211;SDS011;13951;49.516;6.094;2023-09-30T11:31:49;5.28;;;2.60;;
26211;SDS011;13951;49.516;6.094;2023-09-30T11:34:33;6.65;;;3.10;;
26211;SDS011;13951;49.516;6.094;2023-09-30T11:37:07;4.28;;;2.30;;
26211;SDS011;13951;49.516;6.094;2023-09-30T11:39:43;5.03;;;2.58;;
26211;SDS011;13951;49.516;6.094;2023-09-30T11:42:16;5.68;;;2.80;;
26211;SDS011;13951;49.516;6.094;2023-09-30T11:44:51;4.97;;;2.90;;
26211;SDS011;13951;49.516;6.094;2023-09-30T11:47:30;4.40;;;2.47;;
26211;SDS011;13951;49.516;6.094;2023-09-30T11:50:06;3.92;;;2.20;;
26211;SDS011;13951;49.516;6.094;2023-09-30T11:52:39;5.60;;;2.55;;
26211;SDS011;13951;49.516;6.094;2023-09-30T11:55:22;7.47;;;2.47;;
26211;SDS011;13951;49.516;6.094;2023-09-30T11:57:55;5.00;;;2.03;;
26211;SDS011;13951;49.516;6.094;2023-09-30T12:00:28;6.78;;;2.55;;
26211;SDS011;13951;49.516;6.094;2023-09-30T12:03:01;6.45;;;2.30;;
26211;SDS011;13951;49.516;6.094;2023-09-30T12:05:35;4.82;;;2.20;;
26211;SDS011;13951;49.516;6.094;2023-09-30T12:08:09;6.72;;;2.53;;
26211;SDS011;13951;49.516;6.094;2023-09-30T12:10:43;4.82;;;2.47;;
26211;SDS011;13951;49.516;6.094;2023-09-30T12:13:16;4.43;;;2.42;;
26211;SDS011;13951;49.516;6.094;2023-09-30T12:15:50;6.00;;;2.80;;
26211;SDS011;13951;49.516;6.094;2023-09-30T12:18:26;4.55;;;2.35;;
26211;SDS011;13951;49.516;6.094;2023-09-30T12:21:00;3.80;;;2.15;;
26211;SDS011;13951;49.516;6.094;2023-09-30T12:23:33;5.78;;;2.60;;
26211;SDS011;13951;49.516;6.094;2023-09-30T12:26:06;5.43;;;2.25;;
26211;SDS011;13951;49.516;6.094;2023-09-30T12:28:47;4.75;;;2.35;;
26211;SDS011;13951;49.516;6.094;2023-09-30T12:31:21;4.85;;;2.53;;
26211;SDS011;13951;49.516;6.094;2023-09-30T12:33:55;4.53;;;2.17;;
26211;SDS011;13951;49.516;6.094;2023-09-30T12:36:29;5.07;;;2.22;;
26211;SDS011;13951;49.516;6.094;2023-09-30T12:39:02;5.97;;;2.40;;
26211;SDS011;13951;49.516;6.094;2023-09-30T12:41:43;6.95;;;2.58;;
26211;SDS011;13951;49.516;6.094;2023-09-30T12:44:18;6.95;;;2.50;;
26211;SDS011;13951;49.516;6.094;2023-09-30T12:46:54;5.40;;;2.25;;
26211;SDS011;13951;49.516;6.094;2023-09-30T12:49:27;5.38;;;2.53;;
26211;SDS011;13951;49.516;6.094;2023-09-30T12:52:01;5.82;;;2.42;;
26211;SDS011;13951;49.516;6.094;2023-09-30T12:54:34;3.78;;;2.10;;
26211;SDS011;13951;49.516;6.094;2023-09-30T12:57:08;7.13;;;2.33;;
26211;SDS011;13951;49.516;6.094;2023-09-30T12:59:41;4.88;;;2.55;;
26211;SDS011;13951;49.516;6.094;2023-09-30T13:02:14;5.75;;;2.38;;
26211;SDS011;13951;49.516;6.094;2023-09-30T13:04:51;5.75;;;2.72;;
26211;SDS011;13951;49.516;6.094;2023-09-30T13:07:24;5.03;;;2.28;;
26211;SDS011;13951;49.516;6.094;2023-09-30T13:09:57;4.03;;;2.30;;
26211;SDS011;13951;49.516;6.094;2023-09-30T13:12:33;3.40;;;1.85;;
26211;SDS011;13951;49.516;6.094;2023-09-30T13:15:08;4.20;;;2.08;;
26211;SDS011;13951;49.516;6.094;2023-09-30T13:17:42;4.78;;;2.30;;
26211;SDS011;13951;49.516;6.094;2023-09-30T13:20:16;4.30;;;2.13;;
26211;SDS011;13951;49.516;6.094;2023-09-30T13:22:50;3.50;;;2.03;;
26211;SDS011;13951;49.516;6.094;2023-09-30T13:25:23;5.78;;;2.40;;
26211;SDS011;13951;49.516;6.094;2023-09-30T13:27:56;6.32;;;2.35;;
26211;SDS011;13951;49.516;6.094;2023-09-30T13:30:31;3.83;;;2.25;;
26211;SDS011;13951;49.516;6.094;2023-09-30T13:33:05;7.03;;;2.70;;
26211;SDS011;13951;49.516;6.094;2023-09-30T13:35:39;5.18;;;2.40;;
26211;SDS011;13951;49.516;6.094;2023-09-30T13:38:12;5.18;;;2.30;;
26211;SDS011;13951;49.516;6.094;2023-09-30T13:40:45;3.85;;;2.33;;
26211;SDS011;13951;49.516;6.094;2023-09-30T13:43:18;5.13;;;2.17;;
26211;SDS011;13951;49.516;6.094;2023-09-30T13:45:51;5.20;;;2.55;;
26211;SDS011;13951;49.516;6.094;2023-09-30T13:48:25;5.38;;;2.38;;
26211;SDS011;13951;49.516;6.094;2023-09-30T13:51:08;5.25;;;2.38;;
26211;SDS011;13951;49.516;6.094;2023-09-30T13:53:42;6.55;;;2.60;;
26211;SDS011;13951;49.516;6.094;2023-09-30T13:56:15;3.83;;;2.15;;
26211;SDS011;13951;49.516;6.094;2023-09-30T13:58:49;4.15;;;2.47;;
26211;SDS011;13951;49.516;6.094;2023-09-30T14:01:23;5.78;;;2.40;;
26211;SDS011;13951;49.516;6.094;2023-09-30T14:03:56;6.32;;;2.42;;
26211;SDS011;13951;49.516;6.094;2023-09-30T14:06:30;4.50;;;2.17;;
26211;SDS011;13951;49.516;6.094;2023-09-30T14:09:04;4.32;;;2.25;;
26211;SDS011;13951;49.516;6.094;2023-09-30T14:11:37;5.80;;;2.58;;
26211;SDS011;13951;49.516;6.094;2023-09-30T14:14:11;4.55;;;2.35;;
26211;SDS011;13951;49.516;6.094;2023-09-30T14:16:44;4.55;;;2.47;;
26211;SDS011;13951;49.516;6.094;2023-09-30T14:19:18;4.88;;;2.50;;
26211;SDS011;13951;49.516;6.094;2023-09-30T14:21:51;4.85;;;2.30;;
26211;SDS011;13951;49.516;6.094;2023-09-30T14:24:24;4.25;;;2.05;;
26211;SDS011;13951;49.516;6.094;2023-09-30T14:26:58;5.55;;;2.30;;
26211;SDS011;13951;49.516;6.094;2023-09-30T14:29:32;3.75;;;2.60;;
26211;SDS011;13951;49.516;6.094;2023-09-30T14:32:05;4.38;;;2.30;;
26211;SDS011;13951;49.516;6.094;2023-09-30T14:34:39;5.45;;;2.55;;
26211;SDS011;13951;49.516;6.094;2023-09-30T14:37:13;4.25;;;2.15;;
26211;SDS011;13951;49.516;6.094;2023-09-30T14:39:46;4.43;;;2.30;;
26211;SDS011;13951;49.516;6.094;2023-09-30T14:42:19;4.18;;;2.10;;
26211;SDS011;13951;49.516;6.094;2023-09-30T14:44:52;4.93;;;2.40;;
26211;SDS011;13951;49.516;6.094;2023-09-30T14:47:28;4.07;;;2.08;;
26211;SDS011;13951;49.516;6.094;2023-09-30T14:50:05;3.92;;;2.25;;
26211;SDS011;13951;49.516;6.094;2023-09-30T14:52:41;4.43;;;2.03;;
26211;SDS011;13951;49.516;6.094;2023-09-30T14:55:15;4.55;;;2.53;;
26211;SDS011;13951;49.516;6.094;2023-09-30T14:57:50;6.18;;;3.28;;
26211;SDS011;13951;49.516;6.094;2023-09-30T15:00:23;6.78;;;3.90;;
26211;SDS011;13951;49.516;6.094;2023-09-30T15:02:57;5.28;;;2.40;;
26211;SDS011;13951;49.516;6.094;2023-09-30T15:05:31;6.97;;;2.42;;
26211;SDS011;13951;49.516;6.094;2023-09-30T15:08:06;3.92;;;2.08;;
26211;SDS011;13951;49.516;6.094;2023-09-30T15:10:39;4.45;;;2.25;;
26211;SDS011;13951;49.516;6.094;2023-09-30T15:13:12;5.80;;;2.70;;
26211;SDS011;13951;49.516;6.094;2023-09-30T15:15:45;4.13;;;1.80;;
26211;SDS011;13951;49.516;6.094;2023-09-30T15:18:18;4.53;;;2.22;;
26211;SDS011;13951;49.516;6.094;2023-09-30T15:20:52;5.70;;;2.53;;
26211;SDS011;13951;49.516;6.094;2023-09-30T15:23:26;4.60;;;2.65;;
26211;SDS011;13951;49.516;6.094;2023-09-30T15:25:59;7.32;;;2.42;;
26211;SDS011;13951;49.516;6.094;2023-09-30T15:28:33;6.32;;;3.10;;
26211;SDS011;13951;49.516;6.094;2023-09-30T15:31:07;7.65;;;3.00;;
26211;SDS011;13951;49.516;6.094;2023-09-30T15:33:42;8.77;;;2.47;;
26211;SDS011;13951;49.516;6.094;2023-09-30T15:36:16;4.65;;;2.53;;
26211;SDS011;13951;49.516;6.094;2023-09-30T15:38:50;12.18;;;6.68;;
26211;SDS011;13951;49.516;6.094;2023-09-30T15:41:23;5.30;;;2.42;;
26211;SDS011;13951;49.516;6.094;2023-09-30T15:43:59;3.45;;;2.08;;
26211;SDS011;13951;49.516;6.094;2023-09-30T15:46:36;5.70;;;2.42;;
26211;SDS011;13951;49.516;6.094;2023-09-30T15:49:09;5.15;;;2.65;;
26211;SDS011;13951;49.516;6.094;2023-09-30T15:51:43;3.95;;;2.13;;